createdAt,value
2022-12-23T00:02:31.723Z,29.25
2022-12-23T00:05:05.796Z,27.15
2022-12-23T00:07:38.935Z,29.65
2022-12-23T00:10:12.059Z,24.77
2022-12-23T00:13:03.706Z,16.40
2022-12-23T00:15:36.183Z,25.67
2022-12-23T00:18:09.005Z,22.30
2022-12-23T00:20:41.523Z,20.15
2022-12-23T00:23:14.340Z,14.93
2022-12-23T00:25:46.911Z,26.63
2022-12-23T00:28:22.634Z,22.42
2022-12-23T00:30:59.852Z,29.80
2022-12-23T00:33:44.542Z,21.05
2022-12-23T00:36:23.339Z,15.98
2022-12-23T00:39:16.430Z,22.07
2022-12-23T00:42:07.733Z,21.42
2022-12-23T00:44:40.806Z,19.55
2022-12-23T00:47:33.258Z,24.85
2022-12-23T00:50:06.709Z,24.33
2022-12-23T00:52:39.217Z,25.05
2022-12-23T00:55:12.031Z,25.70
2022-12-23T00:57:44.513Z,27.55
2022-12-23T01:00:18.310Z,29.75
2022-12-23T01:03:09.503Z,25.35
2022-12-23T01:05:42.443Z,28.23
2022-12-23T01:08:14.934Z,28.15
2022-12-23T01:10:48.056Z,21.95
2022-12-23T01:13:21.365Z,25.30
2022-12-23T01:16:10.592Z,28.33
2022-12-23T01:18:47.763Z,23.17
2022-12-23T01:21:20.608Z,26.77
2022-12-23T01:23:53.175Z,28.63
2022-12-23T01:26:26.232Z,23.55
2022-12-23T01:28:59.369Z,20.98
2022-12-23T01:31:32.319Z,23.83
2022-12-23T01:34:05.141Z,24.30
2022-12-23T01:36:37.993Z,26.70
2022-12-23T01:39:10.558Z,29.98
2022-12-23T01:42:02.132Z,25.23
2022-12-23T01:45:01.553Z,26.73
2022-12-23T01:47:45.949Z,24.17
2022-12-23T01:50:21.193Z,22.45
2022-12-23T01:53:24.698Z,24.83
2022-12-23T01:56:05.781Z,30.15
2022-12-23T01:59:00.448Z,26.38
2022-12-23T02:01:51.424Z,25.00
2022-12-23T02:04:26.674Z,35.50
2022-12-23T02:07:17.898Z,28.95
2022-12-23T02:09:50.985Z,32.47
2022-12-23T02:12:38.827Z,30.40
2022-12-23T02:15:48.342Z,24.50
2022-12-23T02:18:58.124Z,27.95
2022-12-23T02:22:14.092Z,28.45
2022-12-23T02:25:24.395Z,24.92
2022-12-23T02:30:47.406Z,30.50
2022-12-23T02:33:43.858Z,29.27
2022-12-23T02:36:46.523Z,31.05
2022-12-23T02:39:32.215Z,28.25
2022-12-23T02:42:19.476Z,25.50
2022-12-23T02:45:27.008Z,27.50
2022-12-23T02:48:32.998Z,32.50
2022-12-23T02:51:09.517Z,26.38
2022-12-23T02:53:50.973Z,27.77
2022-12-23T02:56:27.084Z,24.42
2022-12-23T02:59:07.237Z,27.27
2022-12-23T03:01:41.344Z,26.15
2022-12-23T03:04:15.292Z,25.45
2022-12-23T03:06:54.436Z,21.55
2022-12-23T03:09:52.057Z,24.30
2022-12-23T03:12:30.142Z,26.50
2022-12-23T03:15:17.630Z,24.77
2022-12-23T03:17:59.408Z,22.15
2022-12-23T03:20:49.696Z,21.67
2022-12-23T03:28:49.328Z,22.20
2022-12-23T03:31:31.213Z,19.83
2022-12-23T03:34:08.699Z,22.85
2022-12-23T03:37:09.946Z,22.48
2022-12-23T03:39:54.877Z,22.02
2022-12-23T03:42:35.655Z,21.55
2022-12-23T03:48:13.698Z,19.17
2022-12-23T03:50:51.594Z,21.33
2022-12-23T03:53:30.164Z,23.15
2022-12-23T03:56:10.004Z,24.42
2022-12-23T03:59:20.048Z,23.00
2022-12-23T04:02:26.967Z,19.38
2022-12-23T04:05:24.544Z,21.88
2022-12-23T04:08:12.534Z,23.85
2022-12-23T04:10:45.530Z,21.02
2022-12-23T04:13:18.414Z,27.52
2022-12-23T04:15:50.942Z,20.65
2022-12-23T04:18:23.868Z,22.75
2022-12-23T04:20:56.496Z,22.52
2022-12-23T04:23:29.565Z,21.40
2022-12-23T04:26:02.144Z,20.83
2022-12-23T04:28:35.169Z,22.95
2022-12-23T04:31:07.701Z,20.65
2022-12-23T04:33:40.507Z,23.77
2022-12-23T04:36:13.053Z,21.52
2022-12-23T04:38:45.853Z,21.50
2022-12-23T04:41:18.396Z,25.98
2022-12-23T04:43:53.309Z,21.67
2022-12-23T04:46:26.037Z,22.15
2022-12-23T04:48:58.842Z,18.67
2022-12-23T04:51:31.395Z,20.10
2022-12-23T04:54:04.624Z,26.50
2022-12-23T04:56:37.212Z,22.23
2022-12-23T04:59:11.023Z,22.95
2022-12-23T05:01:43.835Z,23.05
2022-12-23T05:04:17.233Z,24.73
2022-12-23T05:06:49.817Z,23.00
2022-12-23T05:09:22.760Z,23.33
2022-12-23T05:11:55.441Z,18.67
2022-12-23T05:14:28.224Z,23.02
2022-12-23T05:17:06.917Z,20.45
2022-12-23T05:19:40.359Z,23.67
2022-12-23T05:22:12.917Z,19.45
2022-12-23T05:24:45.673Z,25.63
2022-12-23T05:27:18.258Z,24.60
2022-12-23T05:29:51.066Z,22.85
2022-12-23T05:32:23.551Z,23.08
2022-12-23T05:34:56.371Z,24.60
2022-12-23T05:37:28.917Z,27.73
2022-12-23T05:40:01.876Z,24.38
2022-12-23T05:42:34.791Z,24.77
2022-12-23T05:45:08.088Z,25.35
2022-12-23T05:47:40.579Z,22.42
2022-12-23T05:50:14.030Z,22.65
2022-12-23T05:52:46.541Z,25.65
2022-12-23T05:55:22.194Z,25.13
2022-12-23T05:57:54.723Z,24.75
2022-12-23T06:00:27.826Z,24.38
2022-12-23T06:03:00.453Z,32.38
2022-12-23T06:05:33.375Z,23.33
2022-12-23T06:08:06.117Z,27.08
2022-12-23T06:10:38.928Z,23.58
2022-12-23T06:13:11.483Z,25.85
2022-12-23T06:15:44.292Z,27.15
2022-12-23T06:18:16.911Z,27.63
2022-12-23T06:20:49.963Z,26.58
2022-12-23T06:23:22.462Z,29.45
2022-12-23T06:26:03.096Z,28.13
2022-12-23T06:31:08.262Z,29.70
2022-12-23T06:33:40.842Z,26.05
2022-12-23T06:36:13.657Z,24.02
2022-12-23T06:38:46.231Z,29.90
2022-12-23T06:41:19.016Z,29.92
2022-12-23T06:43:54.415Z,32.53
2022-12-23T06:46:27.654Z,28.98
2022-12-23T06:49:00.192Z,29.77
2022-12-23T06:51:33.135Z,29.40
2022-12-23T06:54:05.755Z,28.90
2022-12-23T06:56:39.102Z,24.67
2022-12-23T06:59:11.683Z,29.25
2022-12-23T07:01:44.790Z,29.70
2022-12-23T07:04:17.450Z,33.97
2022-12-23T07:06:50.254Z,34.17
2022-12-23T07:09:22.827Z,39.03
2022-12-23T07:11:55.899Z,37.45
2022-12-23T07:14:28.395Z,34.25
2022-12-23T07:17:01.311Z,34.60
2022-12-23T07:19:34.261Z,32.45
2022-12-23T07:22:07.368Z,30.50
2022-12-23T07:24:39.858Z,31.00
2022-12-23T07:27:13.185Z,36.95
2022-12-23T07:29:45.737Z,33.03
2022-12-23T07:32:18.802Z,40.47
2022-12-23T07:34:51.358Z,38.53
2022-12-23T07:37:24.184Z,36.00
2022-12-23T07:39:56.740Z,34.25
2022-12-23T07:42:46.560Z,40.78
2022-12-23T07:45:19.754Z,46.28
2022-12-23T07:47:56.734Z,37.65
2022-12-23T07:50:29.454Z,39.08
2022-12-23T07:53:02.269Z,44.88
2022-12-23T07:55:34.873Z,43.60
2022-12-23T07:58:08.493Z,41.00
2022-12-23T08:00:40.979Z,45.20
2022-12-23T08:03:14.204Z,45.78
2022-12-23T08:05:46.864Z,40.45
2022-12-23T08:08:19.650Z,37.88
2022-12-23T08:10:57.472Z,44.00
2022-12-23T08:13:34.213Z,41.38
2022-12-23T08:16:08.577Z,46.70
2022-12-23T08:18:42.617Z,43.00
2022-12-23T08:21:19.397Z,36.38
2022-12-23T08:23:52.236Z,41.05
2022-12-23T08:26:25.231Z,45.47
2022-12-23T08:28:58.114Z,40.88
2022-12-23T08:31:32.360Z,42.97
2022-12-23T08:34:05.276Z,40.33
2022-12-23T08:36:40.071Z,49.83
2022-12-23T08:39:12.949Z,39.63
2022-12-23T08:41:47.703Z,44.70
2022-12-23T08:44:22.236Z,49.25
2022-12-23T08:46:55.891Z,42.53
2022-12-23T08:49:28.773Z,45.88
2022-12-23T08:52:01.608Z,47.20
2022-12-23T08:54:34.422Z,44.15
2022-12-23T08:57:07.173Z,50.17
2022-12-23T08:59:40.089Z,43.67
2022-12-23T09:02:12.810Z,46.42
2022-12-23T09:04:45.730Z,43.10
2022-12-23T09:07:18.243Z,43.65
2022-12-23T09:09:51.105Z,43.63
2022-12-23T09:12:23.622Z,49.67
2022-12-23T09:14:56.415Z,48.08
2022-12-23T09:17:30.077Z,44.35
2022-12-23T09:20:03.256Z,47.22
2022-12-23T09:22:35.811Z,48.92
2022-12-23T09:25:08.984Z,49.63
2022-12-23T09:27:42.627Z,48.92
2022-12-23T09:30:15.538Z,46.42
2022-12-23T09:32:48.075Z,48.53
2022-12-23T09:35:20.930Z,40.28
2022-12-23T09:37:53.439Z,42.58
2022-12-23T09:40:30.644Z,49.63
2022-12-23T09:43:29.804Z,49.88
2022-12-23T09:46:13.105Z,44.07
2022-12-23T09:48:58.730Z,47.50
2022-12-23T09:51:33.244Z,43.80
2022-12-23T09:54:16.413Z,46.90
2022-12-23T09:56:58.799Z,48.47
2022-12-23T09:59:34.372Z,42.92
2022-12-23T10:02:29.482Z,46.33
2022-12-23T10:05:25.231Z,38.75
2022-12-23T10:08:31.657Z,41.78
2022-12-23T10:11:22.369Z,36.80
2022-12-23T10:14:03.558Z,32.30
2022-12-23T10:16:41.419Z,43.22
2022-12-23T10:19:42.080Z,37.67
2022-12-23T10:22:22.609Z,34.85
2022-12-23T10:24:57.716Z,39.17
2022-12-23T10:27:37.156Z,38.50
2022-12-23T10:30:57.411Z,43.72
2022-12-23T10:33:24.313Z,43.80
2022-12-23T10:36:31.047Z,42.17
2022-12-23T10:39:19.454Z,40.08
2022-12-23T10:42:16.816Z,44.75
2022-12-23T10:45:04.777Z,41.20
2022-12-23T10:47:57.952Z,51.92
2022-12-23T10:50:51.679Z,56.22
2022-12-23T10:53:35.717Z,50.17
2022-12-23T10:56:09.903Z,49.33
2022-12-23T10:58:46.165Z,59.92
2022-12-23T11:01:26.558Z,54.08
2022-12-23T11:04:07.573Z,52.00
2022-12-23T11:06:45.936Z,55.90
2022-12-23T11:09:23.592Z,58.25
2022-12-23T11:11:57.267Z,61.50
2022-12-23T11:14:34.193Z,92.55
2022-12-23T11:17:22.407Z,61.83
2022-12-23T11:20:18.871Z,56.88
2022-12-23T11:22:58.307Z,58.17
2022-12-23T11:25:34.026Z,62.97
2022-12-23T11:28:22.240Z,52.45
2022-12-23T11:31:08.547Z,56.72
2022-12-23T11:33:54.531Z,58.15
2022-12-23T11:36:29.459Z,50.83
2022-12-23T11:39:10.744Z,47.40
2022-12-23T11:41:44.819Z,44.72
2022-12-23T11:44:33.578Z,42.25
2022-12-23T11:47:19.995Z,57.63
2022-12-23T11:49:54.849Z,50.75
2022-12-23T11:52:30.358Z,47.75
2022-12-23T11:55:05.857Z,48.55
2022-12-23T11:57:44.796Z,46.38
2022-12-23T12:00:24.781Z,45.13
2022-12-23T12:03:00.754Z,41.20
2022-12-23T12:05:46.756Z,45.70
2022-12-23T12:08:27.036Z,42.92
2022-12-23T12:11:17.008Z,41.45
2022-12-23T12:13:57.346Z,45.67
2022-12-23T12:17:14.952Z,40.35
2022-12-23T12:19:59.409Z,38.08
2022-12-23T12:22:40.431Z,39.08
2022-12-23T12:25:22.271Z,38.05
2022-12-23T12:28:04.305Z,42.90
2022-12-23T12:30:57.608Z,44.67
2022-12-23T12:33:49.743Z,39.15
2022-12-23T12:36:47.714Z,45.13
2022-12-23T12:39:32.491Z,40.10
2022-12-23T12:42:29.729Z,40.47
2022-12-23T12:45:21.066Z,35.38
2022-12-23T12:48:21.179Z,36.55
2022-12-23T12:51:09.347Z,35.33
2022-12-23T12:53:53.620Z,48.80
2022-12-23T12:56:36.956Z,37.55
2022-12-23T12:59:19.636Z,43.03
2022-12-23T13:02:05.373Z,37.92
2022-12-23T13:05:11.002Z,35.88
2022-12-23T13:08:11.065Z,49.10
2022-12-23T13:13:25.351Z,41.33
2022-12-23T13:16:10.072Z,46.72
2022-12-23T13:18:47.411Z,61.95
2022-12-23T13:21:33.633Z,48.97
2022-12-23T13:24:22.432Z,61.42
2022-12-23T13:27:16.794Z,59.58
2022-12-23T13:30:03.252Z,59.25
2022-12-23T13:32:50.108Z,50.20
2022-12-23T13:35:30.420Z,55.30
2022-12-23T13:38:18.339Z,67.75
2022-12-23T13:41:15.487Z,56.15
2022-12-23T13:43:58.437Z,59.35
2022-12-23T13:46:59.885Z,65.05
2022-12-23T13:50:00.122Z,67.65
2022-12-23T13:52:55.892Z,72.78
2022-12-23T13:55:48.418Z,66.05
2022-12-23T13:58:23.806Z,82.70
2022-12-23T14:01:20.848Z,81.78
2022-12-23T14:03:53.428Z,82.80
2022-12-23T14:06:26.307Z,88.95
2022-12-23T14:08:58.904Z,75.28
2022-12-23T14:11:33.496Z,71.43
2022-12-23T14:14:15.944Z,79.93
2022-12-23T14:17:16.421Z,82.55
2022-12-23T14:20:07.888Z,86.53
2022-12-23T14:22:50.899Z,91.05
2022-12-23T14:25:50.120Z,75.10
2022-12-23T14:28:35.096Z,75.70
2022-12-23T14:31:37.467Z,76.07
2022-12-23T14:34:20.164Z,84.68
2022-12-23T14:37:14.493Z,91.28
2022-12-23T14:39:48.037Z,107.82
2022-12-23T14:42:49.811Z,71.70
2022-12-23T14:45:42.927Z,59.08
2022-12-23T14:48:35.022Z,60.65
2022-12-23T14:51:29.316Z,56.63
2022-12-23T14:54:15.185Z,55.15
2022-12-23T14:57:08.176Z,56.47
2022-12-23T15:00:02.028Z,59.00
2022-12-23T15:02:39.027Z,54.30
2022-12-23T15:05:13.085Z,48.45
2022-12-23T15:07:47.150Z,40.55
2022-12-23T15:10:23.999Z,42.35
2022-12-23T15:13:01.724Z,33.60
2022-12-23T15:15:34.705Z,32.95
2022-12-23T15:18:12.905Z,37.88
2022-12-23T15:20:45.597Z,42.50
2022-12-23T15:23:18.403Z,51.95
2022-12-23T15:25:51.485Z,39.45
2022-12-23T15:28:37.147Z,35.47
2022-12-23T15:31:43.313Z,34.30
2022-12-23T15:34:23.628Z,37.33
2022-12-23T15:36:56.396Z,41.53
2022-12-23T15:39:32.038Z,39.15
2022-12-23T15:42:05.104Z,43.13
2022-12-23T15:44:39.556Z,40.33
2022-12-23T15:47:36.368Z,41.70
2022-12-23T15:50:15.457Z,42.40
2022-12-23T15:52:50.387Z,41.78
2022-12-23T15:55:34.319Z,45.72
2022-12-23T15:58:07.031Z,45.42
2022-12-23T16:00:49.424Z,46.85
2022-12-23T16:03:38.956Z,47.63
2022-12-23T16:06:17.489Z,49.03
2022-12-23T16:08:58.338Z,54.83
2022-12-23T16:12:01.950Z,57.20
2022-12-23T16:14:38.334Z,57.58
2022-12-23T16:17:24.000Z,64.03
2022-12-23T16:20:20.104Z,62.10
2022-12-23T16:22:57.654Z,62.05
2022-12-23T16:25:36.980Z,67.32
2022-12-23T16:28:22.996Z,66.05
2022-12-23T16:30:58.402Z,73.68
2022-12-23T16:33:48.379Z,65.53
2022-12-23T16:36:26.574Z,63.42
2022-12-23T16:39:22.320Z,57.25
2022-12-23T16:41:54.933Z,70.90
2022-12-23T16:44:27.834Z,59.00
2022-12-23T16:47:07.903Z,58.53
2022-12-23T16:52:14.812Z,58.80
2022-12-23T16:54:47.720Z,70.57
2022-12-23T16:57:25.713Z,69.88
2022-12-23T16:59:58.684Z,64.80
2022-12-23T17:02:34.528Z,53.15
2022-12-23T17:05:07.996Z,66.15
2022-12-23T17:07:45.276Z,66.88
2022-12-23T17:10:18.934Z,72.60
2022-12-23T17:12:51.821Z,62.42
2022-12-23T17:15:26.056Z,63.10
2022-12-23T17:17:58.881Z,59.95
2022-12-23T17:20:31.755Z,55.67
2022-12-23T17:23:04.398Z,64.32
2022-12-23T17:25:37.176Z,54.05
2022-12-23T17:28:11.030Z,58.45
2022-12-23T17:30:44.006Z,68.82
2022-12-23T17:33:18.992Z,62.95
2022-12-23T17:35:51.830Z,55.97
2022-12-23T17:38:24.744Z,55.90
2022-12-23T17:41:01.258Z,51.60
2022-12-23T17:43:33.849Z,51.97
2022-12-23T17:46:09.672Z,53.53
2022-12-23T17:48:42.765Z,53.42
2022-12-23T17:51:18.095Z,58.63
2022-12-23T17:53:57.446Z,58.30
2022-12-23T17:56:31.264Z,57.47
2022-12-23T17:59:03.807Z,49.97
2022-12-23T18:01:37.202Z,60.58
2022-12-23T18:04:09.787Z,44.30
2022-12-23T18:06:46.004Z,57.55
2022-12-23T18:09:19.337Z,59.80
2022-12-23T18:11:52.107Z,57.33
2022-12-23T18:14:31.930Z,67.15
2022-12-23T18:17:04.813Z,60.57
2022-12-23T18:19:37.379Z,66.43
2022-12-23T18:22:19.835Z,61.83
2022-12-23T18:24:58.631Z,57.70
2022-12-23T18:27:32.099Z,85.15
2022-12-23T18:30:04.980Z,68.88
2022-12-23T18:32:40.779Z,66.05
2022-12-23T18:35:30.037Z,57.13
2022-12-23T18:38:02.883Z,73.07
2022-12-23T18:40:35.423Z,68.15
2022-12-23T18:43:20.914Z,53.40
2022-12-23T18:45:54.214Z,74.15
2022-12-23T18:48:27.289Z,70.78
2022-12-23T18:50:59.817Z,69.40
2022-12-23T18:53:32.683Z,72.68
2022-12-23T18:56:05.649Z,77.25
2022-12-23T18:58:38.490Z,66.30
2022-12-23T19:01:15.831Z,75.13
2022-12-23T19:03:48.688Z,68.65
2022-12-23T19:06:21.201Z,75.47
2022-12-23T19:08:54.238Z,57.78
2022-12-23T19:11:26.795Z,69.03
2022-12-23T19:13:59.734Z,66.88
2022-12-23T19:16:32.313Z,75.70
2022-12-23T19:19:05.266Z,70.55
2022-12-23T19:21:37.860Z,72.57
2022-12-23T19:24:11.004Z,70.25
2022-12-23T19:26:43.530Z,76.38
2022-12-23T19:29:16.380Z,71.78
2022-12-23T19:31:48.939Z,70.55
2022-12-23T19:34:21.754Z,73.32
2022-12-23T19:36:54.248Z,67.97
2022-12-23T19:39:27.130Z,75.95
2022-12-23T19:41:59.688Z,63.63
2022-12-23T19:44:32.892Z,74.85
2022-12-23T19:47:05.716Z,72.78
2022-12-23T19:49:38.614Z,55.05
2022-12-23T19:52:11.135Z,61.15
2022-12-23T19:54:44.058Z,70.95
2022-12-23T19:57:16.637Z,84.07
2022-12-23T19:59:49.471Z,69.47
2022-12-23T20:02:23.619Z,64.10
2022-12-23T20:04:56.561Z,62.53
2022-12-23T20:07:29.177Z,78.07
2022-12-23T20:10:02.206Z,66.25
2022-12-23T20:12:34.847Z,72.60
2022-12-23T20:15:08.299Z,71.68
2022-12-23T20:17:40.845Z,67.97
2022-12-23T20:20:13.780Z,68.35
2022-12-23T20:22:46.492Z,63.88
2022-12-23T20:25:19.281Z,65.13
2022-12-23T20:27:54.116Z,66.72
2022-12-23T20:30:27.880Z,65.50
2022-12-23T20:33:00.402Z,67.72
2022-12-23T20:35:33.166Z,68.05
2022-12-23T20:38:05.716Z,61.67
2022-12-23T20:40:38.529Z,65.28
2022-12-23T20:43:15.197Z,59.33
2022-12-23T20:45:50.895Z,75.50
2022-12-23T20:48:25.882Z,65.05
2022-12-23T20:51:12.091Z,70.15
2022-12-23T20:53:45.019Z,66.63
2022-12-23T20:56:20.091Z,67.95
2022-12-23T20:58:55.542Z,65.25
2022-12-23T21:01:39.114Z,64.32
2022-12-23T21:04:15.813Z,67.72
2022-12-23T21:06:49.036Z,61.88
2022-12-23T21:09:21.660Z,70.78
2022-12-23T21:11:54.906Z,61.67
2022-12-23T21:14:27.619Z,61.00
2022-12-23T21:17:00.472Z,65.97
2022-12-23T21:19:34.825Z,68.45
2022-12-23T21:22:08.374Z,70.68
2022-12-23T21:24:40.893Z,64.93
2022-12-23T21:27:13.768Z,56.40
2022-12-23T21:29:46.258Z,58.28
2022-12-23T21:32:19.173Z,56.28
2022-12-23T21:34:51.738Z,50.53
2022-12-23T21:37:24.598Z,52.85
2022-12-23T21:39:57.105Z,54.38
2022-12-23T21:42:29.987Z,55.10
2022-12-23T21:45:02.607Z,64.25
2022-12-23T21:47:36.363Z,56.88
2022-12-23T21:50:09.526Z,56.97
2022-12-23T21:52:42.496Z,60.05
2022-12-23T21:55:16.101Z,58.60
2022-12-23T21:57:48.897Z,54.08
2022-12-23T22:00:21.716Z,54.42
2022-12-23T22:02:54.539Z,59.17
2022-12-23T22:05:27.305Z,56.92
2022-12-23T22:08:00.731Z,58.80
2022-12-23T22:10:33.404Z,58.67
2022-12-23T22:13:06.284Z,65.07
2022-12-23T22:15:43.021Z,64.15
2022-12-23T22:18:16.668Z,52.83
2022-12-23T22:20:49.211Z,61.95
2022-12-23T22:23:22.008Z,56.08
2022-12-23T22:25:57.362Z,62.38
2022-12-23T22:28:32.289Z,57.15
2022-12-23T22:31:26.532Z,79.03
2022-12-23T22:34:02.077Z,61.85
2022-12-23T22:36:35.281Z,65.18
2022-12-23T22:39:08.352Z,63.67
2022-12-23T22:41:40.875Z,55.85
2022-12-23T22:44:13.782Z,52.75
2022-12-23T22:46:46.669Z,56.80
2022-12-23T22:49:20.165Z,51.70
2022-12-23T22:51:52.639Z,57.22
2022-12-23T22:54:25.455Z,46.92
2022-12-23T22:56:58.022Z,52.30
2022-12-23T22:59:30.797Z,59.03
2022-12-23T23:02:04.009Z,57.97
2022-12-23T23:04:37.125Z,46.92
2022-12-23T23:07:09.706Z,44.47
2022-12-23T23:09:42.924Z,49.88
2022-12-23T23:12:15.520Z,53.75
2022-12-23T23:14:54.384Z,53.53
2022-12-23T23:17:28.341Z,50.40
2022-12-23T23:20:01.170Z,52.45
2022-12-23T23:22:33.932Z,50.00
2022-12-23T23:25:07.378Z,42.72
2022-12-23T23:27:39.918Z,48.00
2022-12-23T23:30:12.891Z,51.17
2022-12-23T23:32:45.563Z,54.17
2022-12-23T23:35:18.440Z,52.15
2022-12-23T23:37:51.087Z,45.03
2022-12-23T23:40:24.030Z,49.38
2022-12-23T23:42:56.663Z,47.17
2022-12-23T23:45:30.299Z,47.30
2022-12-23T23:48:02.906Z,46.65
2022-12-23T23:50:35.715Z,52.92
2022-12-23T23:53:10.281Z,42.28
2022-12-23T23:55:43.375Z,61.08
2022-12-23T23:58:15.895Z,47.60
